sensor_id;sensor_type;location;lat;lon;timestamp;P1;durP1;ratioP1;P2;durP2;ratioP2
50495;SDS011;38806;51.554;5.704;2022-10-16T00:00:08;10.85;;;7.35;;
50495;SDS011;38806;51.554;5.704;2022-10-16T00:02:09;14.88;;;7.22;;
50495;SDS011;38806;51.554;5.704;2022-10-16T00:04:10;11.38;;;6.25;;
50495;SDS011;38806;51.554;5.704;2022-10-16T00:06:10;8.93;;;5.95;;
50495;SDS011;38806;51.554;5.704;2022-10-16T00:08:11;8.82;;;4.80;;
50495;SDS011;38806;51.554;5.704;2022-10-16T00:10:13;10.85;;;6.68;;
50495;SDS011;38806;51.554;5.704;2022-10-16T00:12:13;12.88;;;6.05;;
50495;SDS011;38806;51.554;5.704;2022-10-16T00:14:14;9.73;;;5.40;;
50495;SDS011;38806;51.554;5.704;2022-10-16T00:16:15;10.30;;;5.70;;
50495;SDS011;38806;51.554;5.704;2022-10-16T00:18:16;8.73;;;5.55;;
50495;SDS011;38806;51.554;5.704;2022-10-16T00:20:16;9.20;;;6.00;;
50495;SDS011;38806;51.554;5.704;2022-10-16T00:22:17;8.77;;;5.18;;
50495;SDS011;38806;51.554;5.704;2022-10-16T00:24:17;8.35;;;4.78;;
50495;SDS011;38806;51.554;5.704;2022-10-16T00:26:17;8.13;;;4.90;;
50495;SDS011;38806;51.554;5.704;2022-10-16T00:28:18;7.97;;;5.63;;
50495;SDS011;38806;51.554;5.704;2022-10-16T00:30:18;11.25;;;5.97;;
50495;SDS011;38806;51.554;5.704;2022-10-16T00:32:19;10.55;;;5.03;;
50495;SDS011;38806;51.554;5.704;2022-10-16T00:34:20;9.77;;;4.97;;
50495;SDS011;38806;51.554;5.704;2022-10-16T00:36:22;9.35;;;4.22;;
50495;SDS011;38806;51.554;5.704;2022-10-16T00:38:23;8.13;;;4.72;;
50495;SDS011;38806;51.554;5.704;2022-10-16T00:40:24;12.00;;;6.47;;
50495;SDS011;38806;51.554;5.704;2022-10-16T00:42:24;7.50;;;4.18;;
50495;SDS011;38806;51.554;5.704;2022-10-16T00:46:49;9.23;;;6.90;;
50495;SDS011;38806;51.554;5.704;2022-10-16T00:49:00;8.02;;;5.25;;
50495;SDS011;38806;51.554;5.704;2022-10-16T00:51:06;8.75;;;4.32;;
50495;SDS011;38806;51.554;5.704;2022-10-16T00:53:07;10.50;;;5.60;;
50495;SDS011;38806;51.554;5.704;2022-10-16T00:55:07;7.60;;;4.72;;
50495;SDS011;38806;51.554;5.704;2022-10-16T00:57:09;8.52;;;5.05;;
50495;SDS011;38806;51.554;5.704;2022-10-16T00:59:31;7.28;;;4.05;;
50495;SDS011;38806;51.554;5.704;2022-10-16T01:01:34;12.05;;;5.40;;
50495;SDS011;38806;51.554;5.704;2022-10-16T01:03:35;10.27;;;4.97;;
50495;SDS011;38806;51.554;5.704;2022-10-16T01:05:41;8.57;;;4.30;;
50495;SDS011;38806;51.554;5.704;2022-10-16T01:07:58;8.82;;;4.55;;
50495;SDS011;38806;51.554;5.704;2022-10-16T01:15:06;7.28;;;4.38;;
50495;SDS011;38806;51.554;5.704;2022-10-16T01:17:12;10.13;;;4.30;;
50495;SDS011;38806;51.554;5.704;2022-10-16T01:19:33;7.68;;;4.22;;
50495;SDS011;38806;51.554;5.704;2022-10-16T01:21:46;6.55;;;3.67;;
50495;SDS011;38806;51.554;5.704;2022-10-16T01:26:19;9.15;;;4.35;;
50495;SDS011;38806;51.554;5.704;2022-10-16T01:28:32;11.95;;;4.55;;
50495;SDS011;38806;51.554;5.704;2022-10-16T01:30:38;7.35;;;4.38;;
50495;SDS011;38806;51.554;5.704;2022-10-16T01:33:01;7.05;;;3.70;;
50495;SDS011;38806;51.554;5.704;2022-10-16T01:35:13;8.40;;;4.03;;
50495;SDS011;38806;51.554;5.704;2022-10-16T01:37:25;9.77;;;4.25;;
50495;SDS011;38806;51.554;5.704;2022-10-16T01:39:32;9.77;;;4.60;;
50495;SDS011;38806;51.554;5.704;2022-10-16T01:41:37;8.80;;;4.25;;
50495;SDS011;38806;51.554;5.704;2022-10-16T01:43:41;7.63;;;4.65;;
50495;SDS011;38806;51.554;5.704;2022-10-16T01:45:46;7.25;;;3.85;;
50495;SDS011;38806;51.554;5.704;2022-10-16T01:47:48;8.60;;;4.18;;
50495;SDS011;38806;51.554;5.704;2022-10-16T01:49:50;8.60;;;4.47;;
50495;SDS011;38806;51.554;5.704;2022-10-16T01:51:53;8.18;;;4.32;;
50495;SDS011;38806;51.554;5.704;2022-10-16T01:53:56;10.88;;;4.47;;
50495;SDS011;38806;51.554;5.704;2022-10-16T01:56:00;5.63;;;3.58;;
50495;SDS011;38806;51.554;5.704;2022-10-16T01:58:03;6.28;;;3.63;;
50495;SDS011;38806;51.554;5.704;2022-10-16T02:00:07;7.00;;;4.00;;
50495;SDS011;38806;51.554;5.704;2022-10-16T02:02:11;5.43;;;3.83;;
50495;SDS011;38806;51.554;5.704;2022-10-16T02:04:15;6.93;;;3.95;;
50495;SDS011;38806;51.554;5.704;2022-10-16T02:06:23;7.82;;;3.55;;
50495;SDS011;38806;51.554;5.704;2022-10-16T02:08:25;5.20;;;3.50;;
50495;SDS011;38806;51.554;5.704;2022-10-16T02:10:29;9.00;;;3.90;;
50495;SDS011;38806;51.554;5.704;2022-10-16T02:12:31;7.72;;;3.75;;
50495;SDS011;38806;51.554;5.704;2022-10-16T02:14:33;6.13;;;2.88;;
50495;SDS011;38806;51.554;5.704;2022-10-16T02:16:43;9.27;;;4.28;;
50495;SDS011;38806;51.554;5.704;2022-10-16T02:18:44;7.30;;;3.40;;
50495;SDS011;38806;51.554;5.704;2022-10-16T02:22:55;8.85;;;3.75;;
50495;SDS011;38806;51.554;5.704;2022-10-16T02:24:58;8.20;;;3.30;;
50495;SDS011;38806;51.554;5.704;2022-10-16T02:27:03;6.68;;;2.47;;
50495;SDS011;38806;51.554;5.704;2022-10-16T02:29:12;5.25;;;2.80;;
50495;SDS011;38806;51.554;5.704;2022-10-16T02:31:18;8.13;;;2.90;;
50495;SDS011;38806;51.554;5.704;2022-10-16T02:33:23;5.95;;;2.85;;
50495;SDS011;38806;51.554;5.704;2022-10-16T02:35:25;6.13;;;3.00;;
50495;SDS011;38806;51.554;5.704;2022-10-16T02:37:27;6.43;;;3.53;;
50495;SDS011;38806;51.554;5.704;2022-10-16T02:39:28;6.78;;;3.13;;
50495;SDS011;38806;51.554;5.704;2022-10-16T02:41:30;5.43;;;3.30;;
50495;SDS011;38806;51.554;5.704;2022-10-16T02:43:30;6.15;;;2.40;;
50495;SDS011;38806;51.554;5.704;2022-10-16T02:45:31;6.57;;;3.25;;
50495;SDS011;38806;51.554;5.704;2022-10-16T02:47:31;6.68;;;2.83;;
50495;SDS011;38806;51.554;5.704;2022-10-16T02:49:32;7.68;;;2.70;;
50495;SDS011;38806;51.554;5.704;2022-10-16T02:51:32;5.03;;;3.10;;
50495;SDS011;38806;51.554;5.704;2022-10-16T02:53:32;5.47;;;2.55;;
50495;SDS011;38806;51.554;5.704;2022-10-16T02:55:33;5.78;;;2.55;;
50495;SDS011;38806;51.554;5.704;2022-10-16T02:57:33;4.13;;;2.50;;
50495;SDS011;38806;51.554;5.704;2022-10-16T02:59:33;6.80;;;3.20;;
50495;SDS011;38806;51.554;5.704;2022-10-16T03:01:34;7.35;;;3.38;;
50495;SDS011;38806;51.554;5.704;2022-10-16T03:03:34;4.75;;;2.50;;
50495;SDS011;38806;51.554;5.704;2022-10-16T03:05:34;4.75;;;2.13;;
50495;SDS011;38806;51.554;5.704;2022-10-16T03:07:35;5.80;;;3.45;;
50495;SDS011;38806;51.554;5.704;2022-10-16T03:09:35;4.25;;;2.28;;
50495;SDS011;38806;51.554;5.704;2022-10-16T03:11:35;4.88;;;3.10;;
50495;SDS011;38806;51.554;5.704;2022-10-16T03:13:35;5.15;;;2.70;;
50495;SDS011;38806;51.554;5.704;2022-10-16T03:15:36;6.47;;;3.20;;
50495;SDS011;38806;51.554;5.704;2022-10-16T03:17:36;4.85;;;2.88;;
50495;SDS011;38806;51.554;5.704;2022-10-16T03:19:36;5.03;;;3.03;;
50495;SDS011;38806;51.554;5.704;2022-10-16T03:21:36;8.65;;;2.88;;
50495;SDS011;38806;51.554;5.704;2022-10-16T03:23:37;4.28;;;2.47;;
50495;SDS011;38806;51.554;5.704;2022-10-16T03:25:37;5.68;;;3.28;;
50495;SDS011;38806;51.554;5.704;2022-10-16T03:27:38;5.95;;;2.75;;
50495;SDS011;38806;51.554;5.704;2022-10-16T03:29:38;4.97;;;2.67;;
50495;SDS011;38806;51.554;5.704;2022-10-16T03:31:38;10.18;;;3.55;;
50495;SDS011;38806;51.554;5.704;2022-10-16T03:33:38;5.15;;;2.80;;
50495;SDS011;38806;51.554;5.704;2022-10-16T03:35:39;7.15;;;3.70;;
50495;SDS011;38806;51.554;5.704;2022-10-16T03:37:39;5.70;;;3.35;;
50495;SDS011;38806;51.554;5.704;2022-10-16T03:39:39;6.95;;;2.90;;
50495;SDS011;38806;51.554;5.704;2022-10-16T03:41:40;5.80;;;4.18;;
50495;SDS011;38806;51.554;5.704;2022-10-16T03:43:40;5.28;;;2.80;;
50495;SDS011;38806;51.554;5.704;2022-10-16T03:45:40;5.63;;;3.30;;
50495;SDS011;38806;51.554;5.704;2022-10-16T03:47:40;6.25;;;3.17;;
50495;SDS011;38806;51.554;5.704;2022-10-16T03:49:41;4.30;;;2.75;;
50495;SDS011;38806;51.554;5.704;2022-10-16T03:51:41;9.88;;;5.15;;
50495;SDS011;38806;51.554;5.704;2022-10-16T03:53:41;5.13;;;3.00;;
50495;SDS011;38806;51.554;5.704;2022-10-16T03:55:42;5.50;;;2.70;;
50495;SDS011;38806;51.554;5.704;2022-10-16T03:57:43;4.45;;;2.97;;
50495;SDS011;38806;51.554;5.704;2022-10-16T03:59:43;5.72;;;3.05;;
50495;SDS011;38806;51.554;5.704;2022-10-16T04:01:43;4.97;;;2.40;;
50495;SDS011;38806;51.554;5.704;2022-10-16T04:03:44;4.20;;;2.60;;
50495;SDS011;38806;51.554;5.704;2022-10-16T04:05:44;7.70;;;2.40;;
50495;SDS011;38806;51.554;5.704;2022-10-16T04:07:44;6.15;;;3.00;;
50495;SDS011;38806;51.554;5.704;2022-10-16T04:09:44;5.13;;;2.90;;
50495;SDS011;38806;51.554;5.704;2022-10-16T04:11:45;7.65;;;3.28;;
50495;SDS011;38806;51.554;5.704;2022-10-16T04:13:45;6.97;;;2.60;;
50495;SDS011;38806;51.554;5.704;2022-10-16T04:15:45;4.47;;;2.55;;
50495;SDS011;38806;51.554;5.704;2022-10-16T04:17:46;4.40;;;3.30;;
50495;SDS011;38806;51.554;5.704;2022-10-16T04:19:46;6.10;;;2.55;;
50495;SDS011;38806;51.554;5.704;2022-10-16T04:21:46;5.68;;;3.08;;
50495;SDS011;38806;51.554;5.704;2022-10-16T04:23:46;5.70;;;2.78;;
50495;SDS011;38806;51.554;5.704;2022-10-16T04:25:47;7.13;;;3.22;;
50495;SDS011;38806;51.554;5.704;2022-10-16T04:27:47;5.18;;;2.50;;
50495;SDS011;38806;51.554;5.704;2022-10-16T04:29:48;5.40;;;3.30;;
50495;SDS011;38806;51.554;5.704;2022-10-16T04:31:48;5.32;;;2.80;;
50495;SDS011;38806;51.554;5.704;2022-10-16T04:33:48;7.45;;;3.10;;
50495;SDS011;38806;51.554;5.704;2022-10-16T04:35:48;5.18;;;2.20;;
50495;SDS011;38806;51.554;5.704;2022-10-16T04:37:59;4.38;;;2.10;;
50495;SDS011;38806;51.554;5.704;2022-10-16T04:39:59;7.97;;;3.08;;
50495;SDS011;38806;51.554;5.704;2022-10-16T04:41:59;5.95;;;3.70;;
50495;SDS011;38806;51.554;5.704;2022-10-16T04:44:00;4.32;;;2.55;;
50495;SDS011;38806;51.554;5.704;2022-10-16T04:46:00;4.10;;;2.40;;
50495;SDS011;38806;51.554;5.704;2022-10-16T04:48:01;5.32;;;2.25;;
50495;SDS011;38806;51.554;5.704;2022-10-16T04:50:02;9.13;;;2.83;;
50495;SDS011;38806;51.554;5.704;2022-10-16T04:52:02;6.82;;;3.10;;
50495;SDS011;38806;51.554;5.704;2022-10-16T04:54:02;6.60;;;3.20;;
50495;SDS011;38806;51.554;5.704;2022-10-16T04:56:03;5.85;;;3.78;;
50495;SDS011;38806;51.554;5.704;2022-10-16T04:58:03;5.07;;;2.85;;
50495;SDS011;38806;51.554;5.704;2022-10-16T05:00:04;6.88;;;3.35;;
50495;SDS011;38806;51.554;5.704;2022-10-16T05:02:05;5.72;;;2.67;;
50495;SDS011;38806;51.554;5.704;2022-10-16T05:04:05;6.78;;;3.90;;
50495;SDS011;38806;51.554;5.704;2022-10-16T05:06:06;5.38;;;2.58;;
50495;SDS011;38806;51.554;5.704;2022-10-16T05:08:07;7.53;;;3.75;;
50495;SDS011;38806;51.554;5.704;2022-10-16T05:10:07;4.15;;;2.45;;
50495;SDS011;38806;51.554;5.704;2022-10-16T05:12:07;4.97;;;2.80;;
50495;SDS011;38806;51.554;5.704;2022-10-16T05:14:08;11.15;;;3.50;;
50495;SDS011;38806;51.554;5.704;2022-10-16T05:16:08;6.03;;;2.70;;
50495;SDS011;38806;51.554;5.704;2022-10-16T05:18:09;6.90;;;3.10;;
50495;SDS011;38806;51.554;5.704;2022-10-16T05:20:09;6.70;;;2.72;;
50495;SDS011;38806;51.554;5.704;2022-10-16T05:22:09;8.50;;;4.10;;
50495;SDS011;38806;51.554;5.704;2022-10-16T05:24:10;5.53;;;3.17;;
50495;SDS011;38806;51.554;5.704;2022-10-16T05:26:10;5.95;;;2.95;;
50495;SDS011;38806;51.554;5.704;2022-10-16T05:28:10;5.63;;;2.88;;
50495;SDS011;38806;51.554;5.704;2022-10-16T05:30:11;5.82;;;3.30;;
50495;SDS011;38806;51.554;5.704;2022-10-16T05:32:11;6.32;;;3.05;;
50495;SDS011;38806;51.554;5.704;2022-10-16T05:34:11;8.57;;;3.65;;
50495;SDS011;38806;51.554;5.704;2022-10-16T05:36:12;8.82;;;3.10;;
50495;SDS011;38806;51.554;5.704;2022-10-16T05:38:12;7.28;;;2.88;;
50495;SDS011;38806;51.554;5.704;2022-10-16T05:40:13;6.68;;;2.90;;
50495;SDS011;38806;51.554;5.704;2022-10-16T05:42:14;6.40;;;3.20;;
50495;SDS011;38806;51.554;5.704;2022-10-16T05:44:14;5.40;;;2.65;;
50495;SDS011;38806;51.554;5.704;2022-10-16T05:46:15;8.57;;;3.45;;
50495;SDS011;38806;51.554;5.704;2022-10-16T05:48:16;7.00;;;2.88;;
50495;SDS011;38806;51.554;5.704;2022-10-16T05:50:16;5.30;;;2.97;;
50495;SDS011;38806;51.554;5.704;2022-10-16T05:52:16;9.50;;;3.47;;
50495;SDS011;38806;51.554;5.704;2022-10-16T05:54:17;8.18;;;3.50;;
50495;SDS011;38806;51.554;5.704;2022-10-16T05:56:17;5.22;;;3.53;;
50495;SDS011;38806;51.554;5.704;2022-10-16T05:58:18;6.72;;;3.30;;
50495;SDS011;38806;51.554;5.704;2022-10-16T06:00:18;7.32;;;3.30;;
50495;SDS011;38806;51.554;5.704;2022-10-16T06:02:18;7.32;;;3.67;;
50495;SDS011;38806;51.554;5.704;2022-10-16T06:04:18;7.28;;;3.28;;
50495;SDS011;38806;51.554;5.704;2022-10-16T06:06:20;7.30;;;3.45;;
50495;SDS011;38806;51.554;5.704;2022-10-16T06:08:22;5.40;;;2.97;;
50495;SDS011;38806;51.554;5.704;2022-10-16T06:10:23;4.90;;;2.75;;
50495;SDS011;38806;51.554;5.704;2022-10-16T06:12:23;6.25;;;2.95;;
50495;SDS011;38806;51.554;5.704;2022-10-16T06:14:23;5.75;;;2.78;;
50495;SDS011;38806;51.554;5.704;2022-10-16T06:16:24;8.15;;;2.58;;
50495;SDS011;38806;51.554;5.704;2022-10-16T06:18:26;6.55;;;2.90;;
50495;SDS011;38806;51.554;5.704;2022-10-16T06:20:27;7.03;;;3.13;;
50495;SDS011;38806;51.554;5.704;2022-10-16T06:22:27;6.88;;;3.63;;
50495;SDS011;38806;51.554;5.704;2022-10-16T06:24:27;8.05;;;3.53;;
50495;SDS011;38806;51.554;5.704;2022-10-16T06:26:28;6.75;;;2.67;;
50495;SDS011;38806;51.554;5.704;2022-10-16T06:28:29;6.55;;;2.95;;
50495;SDS011;38806;51.554;5.704;2022-10-16T06:30:30;6.38;;;3.70;;
50495;SDS011;38806;51.554;5.704;2022-10-16T06:32:30;5.72;;;2.83;;
50495;SDS011;38806;51.554;5.704;2022-10-16T06:34:30;7.47;;;3.72;;
50495;SDS011;38806;51.554;5.704;2022-10-16T06:36:30;6.70;;;3.22;;
50495;SDS011;38806;51.554;5.704;2022-10-16T06:38:31;8.25;;;3.75;;
50495;SDS011;38806;51.554;5.704;2022-10-16T06:40:31;7.00;;;3.20;;
50495;SDS011;38806;51.554;5.704;2022-10-16T06:42:31;5.45;;;3.30;;
50495;SDS011;38806;51.554;5.704;2022-10-16T06:44:32;7.78;;;3.17;;
50495;SDS011;38806;51.554;5.704;2022-10-16T06:46:32;6.95;;;3.80;;
50495;SDS011;38806;51.554;5.704;2022-10-16T06:48:32;7.75;;;3.38;;
50495;SDS011;38806;51.554;5.704;2022-10-16T06:50:33;7.50;;;3.92;;
50495;SDS011;38806;51.554;5.704;2022-10-16T06:52:34;7.10;;;4.28;;
50495;SDS011;38806;51.554;5.704;2022-10-16T06:54:34;8.32;;;3.53;;
50495;SDS011;38806;51.554;5.704;2022-10-16T06:56:34;8.02;;;3.50;;
50495;SDS011;38806;51.554;5.704;2022-10-16T06:58:35;7.10;;;4.18;;
50495;SDS011;38806;51.554;5.704;2022-10-16T07:00:36;5.55;;;2.65;;
50495;SDS011;38806;51.554;5.704;2022-10-16T07:02:36;7.72;;;3.33;;
50495;SDS011;38806;51.554;5.704;2022-10-16T07:04:36;8.15;;;3.22;;
50495;SDS011;38806;51.554;5.704;2022-10-16T07:06:36;6.07;;;3.67;;
50495;SDS011;38806;51.554;5.704;2022-10-16T07:08:38;6.60;;;3.65;;
50495;SDS011;38806;51.554;5.704;2022-10-16T07:10:39;6.72;;;3.33;;
50495;SDS011;38806;51.554;5.704;2022-10-16T07:12:40;7.05;;;3.45;;
50495;SDS011;38806;51.554;5.704;2022-10-16T07:14:40;5.78;;;3.53;;
50495;SDS011;38806;51.554;5.704;2022-10-16T07:16:41;6.55;;;3.17;;
50495;SDS011;38806;51.554;5.704;2022-10-16T07:18:41;7.07;;;3.10;;
50495;SDS011;38806;51.554;5.704;2022-10-16T07:20:45;8.98;;;3.78;;
50495;SDS011;38806;51.554;5.704;2022-10-16T07:22:45;6.65;;;3.50;;
50495;SDS011;38806;51.554;5.704;2022-10-16T07:24:46;5.88;;;3.03;;
50495;SDS011;38806;51.554;5.704;2022-10-16T07:26:46;7.57;;;3.17;;
50495;SDS011;38806;51.554;5.704;2022-10-16T07:28:46;6.22;;;3.20;;
50495;SDS011;38806;51.554;5.704;2022-10-16T07:30:46;14.65;;;5.43;;
50495;SDS011;38806;51.554;5.704;2022-10-16T07:32:47;10.10;;;3.78;;
50495;SDS011;38806;51.554;5.704;2022-10-16T07:34:47;7.03;;;2.95;;
50495;SDS011;38806;51.554;5.704;2022-10-16T07:36:48;5.85;;;2.78;;
50495;SDS011;38806;51.554;5.704;2022-10-16T07:38:49;5.13;;;2.40;;
50495;SDS011;38806;51.554;5.704;2022-10-16T07:40:59;8.25;;;3.30;;
50495;SDS011;38806;51.554;5.704;2022-10-16T07:43:01;7.20;;;2.85;;
50495;SDS011;38806;51.554;5.704;2022-10-16T07:45:02;7.80;;;3.35;;
50495;SDS011;38806;51.554;5.704;2022-10-16T07:47:03;8.65;;;2.97;;
50495;SDS011;38806;51.554;5.704;2022-10-16T07:49:03;6.47;;;2.53;;
50495;SDS011;38806;51.554;5.704;2022-10-16T07:51:04;8.88;;;3.28;;
50495;SDS011;38806;51.554;5.704;2022-10-16T07:53:06;4.50;;;2.92;;
50495;SDS011;38806;51.554;5.704;2022-10-16T07:55:06;5.65;;;2.95;;
50495;SDS011;38806;51.554;5.704;2022-10-16T07:57:06;5.47;;;2.22;;
50495;SDS011;38806;51.554;5.704;2022-10-16T07:59:07;5.80;;;2.47;;
50495;SDS011;38806;51.554;5.704;2022-10-16T08:01:08;6.70;;;3.10;;
50495;SDS011;38806;51.554;5.704;2022-10-16T08:03:10;8.90;;;3.55;;
50495;SDS011;38806;51.554;5.704;2022-10-16T08:05:10;4.82;;;2.15;;
50495;SDS011;38806;51.554;5.704;2022-10-16T08:07:11;4.47;;;2.63;;
50495;SDS011;38806;51.554;5.704;2022-10-16T08:09:11;4.10;;;2.25;;
50495;SDS011;38806;51.554;5.704;2022-10-16T08:11:11;4.30;;;1.98;;
50495;SDS011;38806;51.554;5.704;2022-10-16T08:13:12;6.47;;;2.45;;
50495;SDS011;38806;51.554;5.704;2022-10-16T08:15:14;5.53;;;2.47;;
50495;SDS011;38806;51.554;5.704;2022-10-16T08:17:15;7.28;;;2.35;;
50495;SDS011;38806;51.554;5.704;2022-10-16T08:19:15;3.03;;;1.80;;
50495;SDS011;38806;51.554;5.704;2022-10-16T08:21:16;6.43;;;1.80;;
50495;SDS011;38806;51.554;5.704;2022-10-16T08:23:18;4.43;;;1.42;;
50495;SDS011;38806;51.554;5.704;2022-10-16T08:25:18;3.55;;;2.40;;
50495;SDS011;38806;51.554;5.704;2022-10-16T08:27:18;5.18;;;2.70;;
50495;SDS011;38806;51.554;5.704;2022-10-16T08:29:18;5.78;;;2.55;;
50495;SDS011;38806;51.554;5.704;2022-10-16T08:31:19;7.32;;;2.00;;
50495;SDS011;38806;51.554;5.704;2022-10-16T08:33:20;8.48;;;2.53;;
50495;SDS011;38806;51.554;5.704;2022-10-16T08:35:20;7.32;;;2.08;;
50495;SDS011;38806;51.554;5.704;2022-10-16T08:37:20;5.70;;;2.08;;
50495;SDS011;38806;51.554;5.704;2022-10-16T08:39:20;12.10;;;3.70;;
50495;SDS011;38806;51.554;5.704;2022-10-16T08:41:23;4.35;;;1.83;;
50495;SDS011;38806;51.554;5.704;2022-10-16T08:43:42;4.78;;;1.40;;
50495;SDS011;38806;51.554;5.704;2022-10-16T08:50:38;5.20;;;2.35;;
50495;SDS011;38806;51.554;5.704;2022-10-16T08:52:40;7.03;;;1.80;;
50495;SDS011;38806;51.554;5.704;2022-10-16T08:54:44;5.90;;;1.85;;
50495;SDS011;38806;51.554;5.704;2022-10-16T08:56:47;3.78;;;1.60;;
50495;SDS011;38806;51.554;5.704;2022-10-16T08:58:47;5.75;;;1.67;;
50495;SDS011;38806;51.554;5.704;2022-10-16T09:00:55;4.63;;;1.60;;
50495;SDS011;38806;51.554;5.704;2022-10-16T09:08:25;6.05;;;1.92;;
50495;SDS011;38806;51.554;5.704;2022-10-16T09:10:38;4.50;;;2.08;;
50495;SDS011;38806;51.554;5.704;2022-10-16T09:15:05;2.33;;;1.27;;
50495;SDS011;38806;51.554;5.704;2022-10-16T09:17:28;5.30;;;1.23;;
50495;SDS011;38806;51.554;5.704;2022-10-16T09:19:37;4.28;;;1.52;;
50495;SDS011;38806;51.554;5.704;2022-10-16T09:21:44;5.45;;;1.60;;
50495;SDS011;38806;51.554;5.704;2022-10-16T09:23:45;5.65;;;1.98;;
50495;SDS011;38806;51.554;5.704;2022-10-16T09:25:48;4.18;;;1.58;;
50495;SDS011;38806;51.554;5.704;2022-10-16T09:27:51;4.32;;;1.58;;
50495;SDS011;38806;51.554;5.704;2022-10-16T09:29:53;4.63;;;1.30;;
50495;SDS011;38806;51.554;5.704;2022-10-16T09:31:53;9.63;;;2.10;;
50495;SDS011;38806;51.554;5.704;2022-10-16T09:34:00;4.88;;;1.30;;
50495;SDS011;38806;51.554;5.704;2022-10-16T09:36:06;3.38;;;1.15;;
50495;SDS011;38806;51.554;5.704;2022-10-16T09:38:07;6.57;;;1.58;;
50495;SDS011;38806;51.554;5.704;2022-10-16T09:40:12;3.95;;;1.30;;
50495;SDS011;38806;51.554;5.704;2022-10-16T09:42:34;7.22;;;2.72;;
50495;SDS011;38806;51.554;5.704;2022-10-16T09:44:36;6.07;;;2.03;;
50495;SDS011;38806;51.554;5.704;2022-10-16T09:46:37;4.30;;;1.67;;
50495;SDS011;38806;51.554;5.704;2022-10-16T09:48:43;7.63;;;1.92;;
50495;SDS011;38806;51.554;5.704;2022-10-16T09:50:54;6.90;;;2.30;;
50495;SDS011;38806;51.554;5.704;2022-10-16T09:53:11;7.18;;;2.03;;
50495;SDS011;38806;51.554;5.704;2022-10-16T09:55:15;4.28;;;1.50;;
50495;SDS011;38806;51.554;5.704;2022-10-16T09:57:17;7.18;;;1.83;;
50495;SDS011;38806;51.554;5.704;2022-10-16T09:59:18;6.07;;;2.08;;
50495;SDS011;38806;51.554;5.704;2022-10-16T10:01:20;9.68;;;2.65;;
50495;SDS011;38806;51.554;5.704;2022-10-16T10:03:39;5.03;;;1.85;;
50495;SDS011;38806;51.554;5.704;2022-10-16T10:05:41;7.07;;;2.17;;
50495;SDS011;38806;51.554;5.704;2022-10-16T10:07:53;7.70;;;1.92;;
50495;SDS011;38806;51.554;5.704;2022-10-16T10:09:56;10.83;;;3.00;;
50495;SDS011;38806;51.554;5.704;2022-10-16T10:11:57;8.60;;;2.70;;
50495;SDS011;38806;51.554;5.704;2022-10-16T10:14:05;9.60;;;2.60;;
50495;SDS011;38806;51.554;5.704;2022-10-16T10:16:10;5.28;;;2.28;;
50495;SDS011;38806;51.554;5.704;2022-10-16T10:18:20;6.15;;;1.90;;
50495;SDS011;38806;51.554;5.704;2022-10-16T10:20:31;7.50;;;1.55;;
50495;SDS011;38806;51.554;5.704;2022-10-16T10:22:40;6.65;;;2.53;;
50495;SDS011;38806;51.554;5.704;2022-10-16T10:27:04;8.18;;;2.97;;
50495;SDS011;38806;51.554;5.704;2022-10-16T10:31:27;9.43;;;1.83;;
50495;SDS011;38806;51.554;5.704;2022-10-16T10:36:13;7.15;;;1.50;;
50495;SDS011;38806;51.554;5.704;2022-10-16T10:40:40;8.38;;;1.98;;
50495;SDS011;38806;51.554;5.704;2022-10-16T10:50:30;13.20;;;3.15;;
50495;SDS011;38806;51.554;5.704;2022-10-16T10:52:49;8.23;;;3.03;;
50495;SDS011;38806;51.554;5.704;2022-10-16T10:57:09;7.40;;;1.80;;
50495;SDS011;38806;51.554;5.704;2022-10-16T11:02:04;6.13;;;2.35;;
50495;SDS011;38806;51.554;5.704;2022-10-16T11:06:33;6.97;;;1.80;;
50495;SDS011;38806;51.554;5.704;2022-10-16T11:08:53;7.65;;;2.28;;
50495;SDS011;38806;51.554;5.704;2022-10-16T11:11:09;4.55;;;1.98;;
50495;SDS011;38806;51.554;5.704;2022-10-16T11:15:31;6.85;;;2.45;;
50495;SDS011;38806;51.554;5.704;2022-10-16T11:17:37;7.75;;;2.50;;
50495;SDS011;38806;51.554;5.704;2022-10-16T11:19:45;10.30;;;2.88;;
50495;SDS011;38806;51.554;5.704;2022-10-16T11:21:51;9.85;;;2.65;;
50495;SDS011;38806;51.554;5.704;2022-10-16T11:24:10;6.75;;;2.10;;
50495;SDS011;38806;51.554;5.704;2022-10-16T11:26:23;9.68;;;2.38;;
50495;SDS011;38806;51.554;5.704;2022-10-16T11:30:52;7.80;;;2.00;;
50495;SDS011;38806;51.554;5.704;2022-10-16T11:33:04;6.30;;;2.00;;
50495;SDS011;38806;51.554;5.704;2022-10-16T11:35:24;4.43;;;1.85;;
50495;SDS011;38806;51.554;5.704;2022-10-16T11:37:42;8.45;;;3.03;;
50495;SDS011;38806;51.554;5.704;2022-10-16T11:39:46;9.35;;;2.08;;
50495;SDS011;38806;51.554;5.704;2022-10-16T11:41:48;9.73;;;2.75;;
50495;SDS011;38806;51.554;5.704;2022-10-16T11:43:56;6.30;;;1.20;;
50495;SDS011;38806;51.554;5.704;2022-10-16T11:46:19;7.35;;;2.00;;
50495;SDS011;38806;51.554;5.704;2022-10-16T11:48:27;13.13;;;2.65;;
50495;SDS011;38806;51.554;5.704;2022-10-16T11:50:38;5.82;;;1.67;;
50495;SDS011;38806;51.554;5.704;2022-10-16T11:52:44;9.85;;;1.80;;
50495;SDS011;38806;51.554;5.704;2022-10-16T11:57:05;9.40;;;2.33;;
50495;SDS011;38806;51.554;5.704;2022-10-16T12:07:59;7.65;;;2.63;;
50495;SDS011;38806;51.554;5.704;2022-10-16T12:10:10;4.35;;;1.55;;
50495;SDS011;38806;51.554;5.704;2022-10-16T12:14:36;8.55;;;2.70;;
50495;SDS011;38806;51.554;5.704;2022-10-16T12:17:00;7.53;;;2.00;;
50495;SDS011;38806;51.554;5.704;2022-10-16T12:19:19;4.82;;;1.92;;
50495;SDS011;38806;51.554;5.704;2022-10-16T12:21:21;7.78;;;2.08;;
50495;SDS011;38806;51.554;5.704;2022-10-16T12:23:30;7.15;;;1.60;;
50495;SDS011;38806;51.554;5.704;2022-10-16T12:25:33;11.52;;;1.90;;
50495;SDS011;38806;51.554;5.704;2022-10-16T12:27:35;7.55;;;1.65;;
50495;SDS011;38806;51.554;5.704;2022-10-16T12:29:36;7.13;;;1.70;;
50495;SDS011;38806;51.554;5.704;2022-10-16T12:31:42;7.22;;;1.98;;
50495;SDS011;38806;51.554;5.704;2022-10-16T12:34:01;3.78;;;1.60;;
50495;SDS011;38806;51.554;5.704;2022-10-16T12:36:36;6.28;;;2.35;;
50495;SDS011;38806;51.554;5.704;2022-10-16T12:38:54;8.68;;;2.40;;
50495;SDS011;38806;51.554;5.704;2022-10-16T12:41:02;8.70;;;1.50;;
50495;SDS011;38806;51.554;5.704;2022-10-16T12:45:29;5.63;;;1.42;;
50495;SDS011;38806;51.554;5.704;2022-10-16T12:49:35;7.35;;;2.10;;
50495;SDS011;38806;51.554;5.704;2022-10-16T12:51:38;3.92;;;1.33;;
50495;SDS011;38806;51.554;5.704;2022-10-16T12:53:39;4.38;;;1.17;;
50495;SDS011;38806;51.554;5.704;2022-10-16T12:55:42;9.68;;;2.10;;
50495;SDS011;38806;51.554;5.704;2022-10-16T13:02:40;5.28;;;1.15;;
50495;SDS011;38806;51.554;5.704;2022-10-16T13:06:59;3.65;;;0.98;;
50495;SDS011;38806;51.554;5.704;2022-10-16T13:09:14;9.18;;;2.38;;
50495;SDS011;38806;51.554;5.704;2022-10-16T13:16:01;4.32;;;1.50;;
50495;SDS011;38806;51.554;5.704;2022-10-16T13:18:41;6.10;;;1.60;;
50495;SDS011;38806;51.554;5.704;2022-10-16T13:24:06;7.57;;;2.25;;
50495;SDS011;38806;51.554;5.704;2022-10-16T13:28:32;5.10;;;1.98;;
50495;SDS011;38806;51.554;5.704;2022-10-16T13:30:36;6.45;;;1.45;;
50495;SDS011;38806;51.554;5.704;2022-10-16T13:32:40;6.68;;;1.92;;
50495;SDS011;38806;51.554;5.704;2022-10-16T13:34:45;7.85;;;1.92;;
50495;SDS011;38806;51.554;5.704;2022-10-16T13:36:48;6.30;;;1.75;;
50495;SDS011;38806;51.554;5.704;2022-10-16T13:39:12;9.38;;;1.95;;
50495;SDS011;38806;51.554;5.704;2022-10-16T13:41:17;6.68;;;1.70;;
50495;SDS011;38806;51.554;5.704;2022-10-16T13:43:19;5.05;;;0.80;;
50495;SDS011;38806;51.554;5.704;2022-10-16T13:45:25;4.75;;;1.95;;
50495;SDS011;38806;51.554;5.704;2022-10-16T13:47:26;3.10;;;1.17;;
50495;SDS011;38806;51.554;5.704;2022-10-16T13:49:28;5.63;;;1.83;;
50495;SDS011;38806;51.554;5.704;2022-10-16T13:51:29;3.83;;;1.23;;
50495;SDS011;38806;51.554;5.704;2022-10-16T13:53:31;5.43;;;1.05;;